Time;durP1;ratioP1;P1;durP2;ratioP2;P2;SDS_P1;SDS_P2;PMS_P1;PMS_P2;Temp;Humidity;BMP_temperature;BMP_pressure;BME280_temperature;BME280_humidity;BME280_pressure;Samples;Min_cycle;Max_cycle;Signal;HPM_P1;HPM_P2
2022/04/06 03:28:50;;;;;;;;;;;;;;;5.84;100.00;98763.56;5303575;23;20357;-89
2022/04/06 03:31:16;;;;;;;;;;;;;;;5.86;100.00;98768.75;4945092;29;19926;-85
2022/04/06 03:33:41;;;;;;;;;;;;;;;5.88;100.00;98762.50;4945937;29;19929;-88
2022/04/06 03:36:07;;;;;;;;;;;;;;;5.87;100.00;98752.91;4944609;29;19929;-86
2022/04/06 03:38:32;;;;;;;;;;;;;;;5.90;100.00;98755.41;4945764;28;19918;-92
2022/04/06 03:40:57;;;;;;;;;;;;;;;5.93;100.00;98763.16;4944921;29;19927;-89
2022/04/06 03:43:22;;;;;;;;;;;;;;;5.90;100.00;98750.13;4943441;29;19977;-85
2022/04/06 03:45:48;;;;;;;;;;;;;;;5.92;100.00;98750.06;4943297;28;19926;-85
2022/04/06 03:48:13;;;;;;;;;;;;;;;5.93;100.00;98747.38;4944881;29;20014;-84
2022/04/06 03:50:39;;;;;;;;;;;;;;;5.95;100.00;98753.47;4958676;28;19922;-86
2022/04/06 03:53:04;;;;;;;;;;;;;;;5.96;100.00;98754.31;4944542;29;19914;-87
2022/04/06 03:55:30;;;;;;;;;;;;;;;5.97;100.00;98751.66;4944600;28;19925;-87
2022/04/06 03:57:55;;;;;;;;;;;;;;;5.50;100.00;98751.72;4943213;29;19919;-82
2022/04/06 04:00:20;;;;;;;;;;;;;;;4.87;100.00;98741.81;4943264;29;20366;-82
2022/04/06 04:02:48;;;;;;;;;;;;;;;4.85;100.00;98748.88;4944358;29;20005;-85
2022/04/06 04:05:14;;;;;;;;;;;;;;;5.01;100.00;98745.69;4944416;28;19918;-84
2022/04/06 04:07:39;;;;;;;;;;;;;;;5.01;100.00;98737.81;4944047;29;20014;-82
2022/04/06 04:10:05;;;;;;;;;;;;;;;4.88;100.00;98738.28;4950935;29;19973;-81
2022/04/06 04:12:31;;;;;;;;;;;;;;;4.73;100.00;98734.41;4941989;29;20042;-84
2022/04/06 04:14:56;;;;;;;;;;;;;;;4.69;100.00;98742.44;4944107;29;20397;-87
2022/04/06 04:17:21;;;;;;;;;;;;;;;4.64;100.00;98741.75;4942813;29;19961;-82
2022/04/06 04:19:46;;;;;;;;;;;;;;;4.53;100.00;98743.00;4944566;29;19965;-83
2022/04/06 04:22:12;;;;;;;;;;;;;;;4.49;100.00;98741.38;4943152;29;19962;-82
2022/04/06 04:24:37;;;;;;;;;;;;;;;4.47;100.00;98737.97;4944095;28;19926;-82
2022/04/06 04:27:03;;;;;;;;;;;;;;;4.36;100.00;98734.88;4942750;29;19927;-81
2022/04/06 04:29:28;;;;;;;;;;;;;;;4.35;100.00;98735.75;4944257;28;19922;-85
2022/04/06 04:31:53;;;;;;;;;;;;;;;4.27;100.00;98736.00;4944188;28;19927;-87
2022/04/06 04:34:19;;;;;;;;;;;;;;;4.26;100.00;98742.19;4942665;29;20387;-87
2022/04/06 04:36:44;;;;;;;;;;;;;;;4.24;100.00;98735.28;4944620;29;19926;-86
2022/04/06 04:39:09;;;;;;;;;;;;;;;4.20;100.00;98734.53;4942893;29;19923;-86
2022/04/06 07:54:13;;;;;;;;;;;;;;;3.40;92.98;98722.22;5008793;23;20025;-81
2022/04/06 07:56:39;;;;;;;;;;;;;;;3.41;93.24;98713.44;4944305;29;20413;-81
2022/04/06 07:59:05;;;;;;;;;;;;;;;3.57;93.31;98713.81;4945218;29;19919;-79
2022/04/06 08:01:30;;;;;;;;;;;;;;;3.56;93.37;98716.50;4944573;28;20291;-79
2022/04/06 08:03:55;;;;;;;;;;;;;;;3.63;93.59;98718.03;4944012;29;19974;-80
2022/04/06 08:06:22;;;;;;;;;;;;;;;3.55;93.85;98722.66;4946697;29;19926;-80
2022/04/06 08:08:51;;;;;;;;;;;;;;;3.50;93.58;98714.94;4943241;28;19941;-80
2022/04/06 08:11:17;;;;;;;;;;;;;;;3.45;93.41;98728.16;4944936;29;19918;-80
2022/04/06 08:13:42;;;;;;;;;;;;;;;3.48;93.29;98721.09;4943021;29;20326;-80
2022/04/06 08:16:07;;;;;;;;;;;;;;;3.51;93.08;98726.25;4942651;29;20093;-80
2022/04/06 08:18:33;;;;;;;;;;;;;;;3.49;92.57;98730.69;4940776;29;19922;-79
2022/04/06 08:20:59;;;;;;;;;;;;;;;3.50;92.18;98716.69;4944162;29;20030;-80
2022/04/06 08:23:24;;;;;;;;;;;;;;;3.44;91.79;98728.22;4943214;29;19922;-79
2022/04/06 08:25:49;;;;;;;;;;;;;;;3.44;91.51;98728.22;4942072;29;19923;-79
2022/04/06 08:28:15;;;;;;;;;;;;;;;3.47;91.74;98724.66;4944950;29;19926;-80
2022/04/06 08:30:40;;;;;;;;;;;;;;;3.45;91.41;98729.94;4943068;29;19919;-80
2022/04/06 08:33:06;;;;;;;;;;;;;;;3.47;91.24;98722.03;4946369;28;19922;-80
2022/04/06 08:35:31;;;;;;;;;;;;;;;3.42;90.74;98733.50;4947882;29;19918;-80
2022/04/06 08:37:56;;;;;;;;;;;;;;;3.43;90.67;98722.13;4960777;28;19919;-79
2022/04/06 08:40:21;;;;;;;;;;;;;;;3.43;90.48;98716.88;4949612;29;20010;-80
2022/04/06 08:42:47;;;;;;;;;;;;;;;3.41;90.32;98723.06;4948970;29;20001;-80
2022/04/06 08:45:12;;;;;;;;;;;;;;;3.42;90.24;98725.63;4949118;29;19934;-80
2022/04/06 08:47:38;;;;;;;;;;;;;;;3.46;90.15;98729.00;4944589;29;20401;-80
2022/04/06 08:50:04;;;;;;;;;;;;;;;3.45;90.17;98720.31;4947499;28;19931;-79
2022/04/06 08:52:33;;;;;;;;;;;;;;;3.40;89.90;98722.22;4945811;28;19926;-79
2022/04/06 08:54:58;;;;;;;;;;;;;;;3.41;89.74;98723.91;4946651;29;19926;-79
2022/04/06 08:57:24;;;;;;;;;;;;;;;3.45;89.49;98729.94;4947740;29;20338;-80
2022/04/06 08:59:49;;;;;;;;;;;;;;;3.41;89.42;98731.78;4947310;29;19919;-80
2022/04/06 09:02:18;;;;;;;;;;;;;;;3.44;89.54;98718.59;4946894;29;19930;-80
2022/04/06 09:04:43;;;;;;;;;;;;;;;3.49;89.47;98722.84;4949072;29;19923;-80
2022/04/06 09:07:09;;;;;;;;;;;;;;;3.48;89.24;98724.59;4947898;29;20129;-80
2022/04/06 09:09:35;;;;;;;;;;;;;;;3.47;89.17;98733.34;4946599;29;19927;-79
2022/04/06 09:12:05;;;;;;;;;;;;;;;3.55;89.09;98720.03;4948039;28;20378;-80
2022/04/06 09:14:30;;;;;;;;;;;;;;;3.54;89.00;98726.16;4940612;29;19922;-80
2022/04/06 09:17:06;;;;;;;;;;;;;;;3.53;88.93;98724.47;4946797;28;19923;-79
2022/04/06 09:19:35;;;;;;;;;;;;;;;3.54;88.91;98724.41;4946878;28;19926;-80
2022/04/06 09:22:00;;;;;;;;;;;;;;;3.52;88.89;98715.72;4950829;28;19922;-79
2022/04/06 09:24:26;;;;;;;;;;;;;;;3.49;88.55;98720.22;4947135;28;19941;-80
2022/04/06 09:27:01;;;;;;;;;;;;;;;3.52;88.43;98722.75;4947751;29;19923;-80
2022/04/06 09:29:27;;;;;;;;;;;;;;;3.54;88.11;98728.78;4947465;29;19927;-80
2022/04/06 09:31:52;;;;;;;;;;;;;;;3.49;87.83;98725.44;4946524;29;19923;-80
2022/04/06 09:34:22;;;;;;;;;;;;;;;3.52;87.59;98734.06;4946846;29;19918;-80
2022/04/06 09:36:47;;;;;;;;;;;;;;;3.50;87.33;98724.56;4947135;28;19923;-80
2022/04/06 09:39:12;;;;;;;;;;;;;;;3.48;87.28;98724.59;4944908;29;19978;-80
2022/04/06 09:41:56;;;;;;;;;;;;;;;3.47;87.12;98720.25;4946852;28;19924;-81
2022/04/06 09:50:17;;;;;;;;;;;;;;;3.51;86.79;98719.28;4946534;29;19938;-79
2022/04/06 09:52:43;;;;;;;;;;;;;;;3.51;86.67;98723.63;4945545;29;19919;-79
2022/04/06 09:55:09;;;;;;;;;;;;;;;3.51;86.40;98718.41;4944203;29;19930;-79
2022/04/06 09:57:41;;;;;;;;;;;;;;;3.49;86.06;98720.22;4944712;29;19929;-79
2022/04/06 10:00:07;;;;;;;;;;;;;;;3.48;85.87;98721.09;4945824;29;19984;-80
2022/04/06 10:02:33;;;;;;;;;;;;;;;3.53;85.56;98714.84;4946421;29;19996;-80
2022/04/06 10:05:00;;;;;;;;;;;;;;;3.54;85.72;98713.06;4946120;28;19937;-80
2022/04/06 10:07:25;;;;;;;;;;;;;;;3.54;85.43;98713.06;4945432;29;19975;-79
2022/04/06 10:09:51;;;;;;;;;;;;;;;3.52;85.24;98710.50;4961221;28;19926;-80
2022/04/06 10:12:17;;;;;;;;;;;;;;;3.52;85.10;98709.66;4946328;28;19923;-80
2022/04/06 10:14:43;;;;;;;;;;;;;;;3.56;84.85;98706.03;4945253;28;19929;-79
2022/04/06 10:17:08;;;;;;;;;;;;;;;3.57;85.18;98708.56;4946950;28;19933;-80
2022/04/06 10:19:39;;;;;;;;;;;;;;;3.57;84.96;98712.97;4944328;29;20297;-79
2022/04/06 10:22:08;;;;;;;;;;;;;;;3.58;84.78;98706.84;4945267;29;19919;-80
2022/04/06 10:24:42;;;;;;;;;;;;;;;3.61;84.56;98704.97;4946102;28;19986;-80
2022/04/06 10:27:30;;;;;;;;;;;;;;;3.60;84.48;98698.00;4947223;29;21392;-80
2022/04/06 10:30:14;;;;;;;;;;;;;;;3.63;84.55;98691.81;4944811;29;19929;-80
2022/04/06 10:32:40;;;;;;;;;;;;;;;3.62;84.22;98698.84;4945920;28;19938;-80
2022/04/06 10:35:24;;;;;;;;;;;;;;;3.65;84.38;98692.63;4945834;29;20029;-80
2022/04/06 10:37:49;;;;;;;;;;;;;;;3.66;84.25;98686.50;4942917;29;19922;-80
2022/04/06 10:40:15;;;;;;;;;;;;;;;3.69;83.97;98691.63;4945606;29;19919;-80
2022/04/06 10:42:42;;;;;;;;;;;;;;;3.70;83.86;98695.97;4945589;29;19971;-80
2022/04/06 10:45:26;;;;;;;;;;;;;;;3.68;83.84;98689.06;4945453;29;19919;-80
2022/04/06 10:48:13;;;;;;;;;;;;;;;3.63;83.29;98689.19;4945685;29;20388;-80
2022/04/06 10:50:39;;;;;;;;;;;;;;;3.70;83.09;98693.34;4944074;29;19973;-80
2022/04/06 10:53:20;;;;;;;;;;;;;;;3.72;83.16;98691.53;4958710;28;19922;-79
2022/04/06 10:56:16;;;;;;;;;;;;;;;3.70;82.95;98693.34;4943247;28;19926;-79
2022/04/06 10:58:53;;;;;;;;;;;;;;;3.73;82.91;98689.75;4945713;28;19994;-79
2022/04/06 11:01:18;;;;;;;;;;;;;;;3.69;82.73;98681.16;4943754;29;19922;-78
2022/04/06 11:04:04;;;;;;;;;;;;;;;3.72;82.61;98685.41;4945222;29;20413;-78
2022/04/06 11:06:48;;;;;;;;;;;;;;;3.71;82.28;98684.56;4959939;28;20582;-79
2022/04/06 11:12:10;;;;;;;;;;;;;;;3.71;81.74;98674.09;4945068;29;20018;-78
2022/04/06 11:14:35;;;;;;;;;;;;;;;3.73;81.62;98674.88;4944085;29;19918;-79
2022/04/06 11:17:01;;;;;;;;;;;;;;;3.74;81.66;98681.00;4944260;29;20295;-79
2022/04/06 11:19:26;;;;;;;;;;;;;;;3.73;81.66;98667.03;4943692;29;19973;-78
2022/04/06 11:21:53;;;;;;;;;;;;;;;3.70;81.44;98666.28;4944257;29;20392;-79
2022/04/06 11:24:19;;;;;;;;;;;;;;;3.75;81.18;98664.34;4944820;29;20082;-78
2022/04/06 11:26:45;;;;;;;;;;;;;;;3.72;81.04;98669.69;4945160;28;19958;-78
2022/04/06 11:29:10;;;;;;;;;;;;;;;3.70;80.87;98676.75;4944756;29;20017;-78
2022/04/06 11:31:51;;;;;;;;;;;;;;;3.75;81.25;98660.00;4943364;29;19918;-79
2022/04/06 11:34:33;;;;;;;;;;;;;;;3.75;81.27;98660.00;4944879;28;19918;-79
2022/04/06 11:36:59;;;;;;;;;;;;;;;3.72;80.88;98657.47;4944147;29;19918;-78
2022/04/06 11:39:24;;;;;;;;;;;;;;;3.75;80.67;98661.72;4945300;28;20396;-79
2022/04/06 11:41:50;;;;;;;;;;;;;;;3.78;80.57;98659.00;4944528;29;19926;-78
2022/04/06 11:44:20;;;;;;;;;;;;;;;3.78;80.24;98659.00;4944440;29;20286;-78
2022/04/06 11:46:46;;;;;;;;;;;;;;;3.79;80.16;98653.72;4944464;29;20221;-79
2022/04/06 11:49:11;;;;;;;;;;;;;;;3.84;80.12;98664.06;4945102;28;19919;-80
2022/04/06 11:51:36;;;;;;;;;;;;;;;3.83;80.09;98646.63;4944788;28;19925;-80
2022/04/06 11:54:02;;;;;;;;;;;;;;;3.80;80.17;98655.44;4941560;29;20302;-80
2022/04/06 11:56:27;;;;;;;;;;;;;;;3.82;80.08;98651.00;4943000;29;19922;-80
2022/04/06 11:58:57;;;;;;;;;;;;;;;3.80;79.79;98647.59;4945020;29;19966;-80
2022/04/06 12:01:28;;;;;;;;;;;;;;;3.79;79.38;98639.78;4945608;28;19926;-80
2022/04/06 12:03:53;;;;;;;;;;;;;;;3.85;79.38;98646.59;4943885;29;19973;-79
2022/04/06 12:06:18;;;;;;;;;;;;;;;3.85;79.49;98643.97;4944319;28;19922;-79
2022/04/06 12:08:46;;;;;;;;;;;;;;;3.86;79.60;98643.03;4942212;29;20268;-79
2022/04/06 12:11:12;;;;;;;;;;;;;;;3.86;79.36;98636.06;4943945;29;19966;-79
2022/04/06 12:13:38;;;;;;;;;;;;;;;3.88;79.52;98649.06;4943759;29;19918;-80
2022/04/06 12:16:04;;;;;;;;;;;;;;;3.93;79.55;98637.53;4943824;29;19930;-80
2022/04/06 12:18:30;;;;;;;;;;;;;;;3.90;79.66;98628.94;4944044;29;19930;-79
2022/04/06 12:20:55;;;;;;;;;;;;;;;3.93;79.44;98634.06;4944487;28;20489;-79
2022/04/06 12:23:22;;;;;;;;;;;;;;;3.90;79.13;98624.53;4942705;29;19922;-79
2022/04/06 12:25:47;;;;;;;;;;;;;;;3.95;79.00;98619.16;4944083;29;19923;-79
2022/04/06 12:28:22;;;;;;;;;;;;;;;3.93;78.98;98613.97;4944276;29;19940;-79
2022/04/06 12:31:01;;;;;;;;;;;;;;;3.91;78.70;98620.16;4943949;29;20301;-78
2022/04/06 12:33:48;;;;;;;;;;;;;;;3.96;78.55;98618.25;4943990;29;19923;-80
2022/04/06 12:36:25;;;;;;;;;;;;;;;3.93;78.28;98611.34;4950503;29;19970;-79
2022/04/06 12:39:00;;;;;;;;;;;;;;;3.92;78.40;98611.38;4942789;29;19970;-79
2022/04/06 12:41:26;;;;;;;;;;;;;;;3.99;78.69;98610.28;4944089;29;19925;-79
2022/04/06 12:43:53;;;;;;;;;;;;;;;4.03;78.92;98619.72;4944045;28;19922;-80
2022/04/06 12:46:37;;;;;;;;;;;;;;;4.02;78.70;98611.91;4944270;28;19927;-79
2022/04/06 12:49:21;;;;;;;;;;;;;;;3.99;78.70;98610.28;4943950;29;20338;-79
2022/04/06 12:51:46;;;;;;;;;;;;;;;4.18;80.29;98595.59;4942280;29;19949;-79
2022/04/06 12:54:12;;;;;;;;;;;;;;;4.30;82.38;98594.28;4941225;29;20383;-79
2022/04/06 12:56:37;;;;;;;;;;;;;;;4.30;84.01;98601.31;4943691;29;20294;-79
2022/04/06 12:59:08;;;;;;;;;;;;;;;4.27;85.26;98591.78;4944011;29;19926;-79
2022/04/06 13:01:33;;;;;;;;;;;;;;;4.22;86.36;98588.47;4943781;28;19919;-79
2022/04/06 13:03:58;;;;;;;;;;;;;;;4.16;87.10;98586.94;4943527;29;19930;-79
2022/04/06 13:06:23;;;;;;;;;;;;;;;4.15;88.37;98566.88;4943863;29;19918;-78
2022/04/06 13:08:49;;;;;;;;;;;;;;;4.09;89.46;98566.25;4942281;29;19977;-79
2022/04/06 13:11:14;;;;;;;;;;;;;;;4.03;90.42;98580.41;4943990;29;19919;-78
2022/04/06 13:13:39;;;;;;;;;;;;;;;4.07;92.03;98566.28;4943436;29;20362;-78
2022/04/06 13:16:04;;;;;;;;;;;;;;;4.27;94.27;98568.19;4943781;29;20381;-78
2022/04/06 13:18:30;;;;;;;;;;;;;;;4.50;97.31;98553.34;4944253;29;19926;-78
2022/04/06 13:20:55;;;;;;;;;;;;;;;4.73;100.00;98555.13;4945602;29;19923;-78
2022/04/06 13:23:20;;;;;;;;;;;;;;;4.88;100.00;98556.28;4945390;29;19922;-79
2022/04/06 13:25:45;;;;;;;;;;;;;;;4.98;100.00;98544.50;4947271;29;19919;-79
2022/04/06 13:28:13;;;;;;;;;;;;;;;5.06;100.00;98533.72;4947430;29;19966;-79
2022/04/06 13:30:39;;;;;;;;;;;;;;;5.14;100.00;98534.25;4946689;29;19950;-79
2022/04/06 13:33:04;;;;;;;;;;;;;;;5.21;100.00;98521.72;4947055;28;19922;-79
2022/04/06 13:35:29;;;;;;;;;;;;;;;5.24;100.00;98522.44;4946878;29;20361;-79
2022/04/06 13:37:55;;;;;;;;;;;;;;;5.28;100.00;98521.41;4945459;29;19918;-79
2022/04/06 13:40:20;;;;;;;;;;;;;;;5.32;100.00;98519.50;4947364;29;19918;-79
2022/04/06 13:42:45;;;;;;;;;;;;;;;5.37;100.00;98509.66;4946912;29;19954;-79
2022/04/06 13:45:10;;;;;;;;;;;;;;;5.42;100.00;98512.09;4946467;29;19919;-79
2022/04/06 13:47:36;;;;;;;;;;;;;;;5.44;100.00;98505.84;4946588;29;19919;-79
2022/04/06 13:50:02;;;;;;;;;;;;;;;5.50;100.00;98494.22;4945745;29;19923;-79
2022/04/06 13:52:29;;;;;;;;;;;;;;;5.54;100.00;98493.19;4945575;29;20444;-79
2022/04/06 13:54:56;;;;;;;;;;;;;;;5.54;100.00;98490.56;4946440;28;19927;-79
2022/04/06 13:57:22;;;;;;;;;;;;;;;5.57;100.00;98490.41;4946212;29;20395;-79
2022/04/06 13:59:47;;;;;;;;;;;;;;;5.61;100.00;98485.88;4946524;29;20018;-86
2022/04/06 14:02:13;;;;;;;;;;;;;;;5.62;100.00;98480.56;4947919;28;19926;-85
2022/04/06 14:04:39;;;;;;;;;;;;;;;5.63;100.00;98470.88;4945118;29;19969;-85
2022/04/06 14:07:04;;;;;;;;;;;;;;;5.66;100.00;98462.03;4943758;29;20005;-86
2022/04/06 14:09:29;;;;;;;;;;;;;;;5.68;100.00;98463.69;4945851;29;20388;-85
2022/04/06 14:11:57;;;;;;;;;;;;;;;5.73;100.00;98460.84;4946099;29;19922;-85
2022/04/06 14:14:22;;;;;;;;;;;;;;;5.73;100.00;98464.31;4945577;29;20013;-85
2022/04/06 14:16:47;;;;;;;;;;;;;;;5.72;100.00;98446.84;4944878;29;20054;-86
2022/04/06 14:19:13;;;;;;;;;;;;;;;5.74;100.00;98445.00;4944706;29;19969;-85
2022/04/06 14:21:38;;;;;;;;;;;;;;;5.78;100.00;98448.34;4946042;29;19922;-86
2022/04/06 14:24:05;;;;;;;;;;;;;;;5.79;100.00;98431.66;4944025;29;20378;-85
2022/04/06 14:26:30;;;;;;;;;;;;;;;5.80;100.00;98430.72;4946243;29;19926;-85
2022/04/06 14:28:56;;;;;;;;;;;;;;;5.09;100.00;98433.81;4945678;29;19923;-85
2022/04/06 14:31:21;;;;;;;;;;;;;;;4.67;100.00;98430.25;4945920;29;19918;-85
2022/04/06 14:33:47;;;;;;;;;;;;;;;4.60;100.00;98433.19;4944973;29;20290;-85
2022/04/06 14:36:12;;;;;;;;;;;;;;;4.55;100.00;98430.75;4945806;28;19929;-85
2022/04/06 14:38:37;;;;;;;;;;;;;;;4.46;100.00;98415.38;4944653;29;19919;-85
2022/04/06 14:41:07;;;;;;;;;;;;;;;4.41;100.00;98415.56;4945877;29;20010;-85
2022/04/06 14:43:33;;;;;;;;;;;;;;;4.32;100.00;98418.53;4945672;28;19954;-86
2022/04/06 14:45:59;;;;;;;;;;;;;;;4.29;100.00;98418.66;4945459;29;19989;-85
2022/04/06 14:48:25;;;;;;;;;;;;;;;4.31;100.00;98403.72;4945392;29;19914;-85
2022/04/06 14:50:51;;;;;;;;;;;;;;;4.26;100.00;98403.03;4945660;28;19990;-85
2022/04/06 14:53:17;;;;;;;;;;;;;;;4.23;100.00;98405.78;4943889;28;19929;-86
2022/04/06 14:55:43;;;;;;;;;;;;;;;4.19;100.00;98402.44;4944424;29;20017;-85
2022/04/06 14:58:08;;;;;;;;;;;;;;;4.19;100.00;98398.03;4945711;28;20338;-85
2022/04/06 15:00:34;;;;;;;;;;;;;;;4.16;100.00;98399.91;4945296;29;19919;-85
2022/04/06 15:03:02;;;;;;;;;;;;;;;4.13;99.78;98387.81;4945070;29;19918;-85
2022/04/06 15:05:28;;;;;;;;;;;;;;;4.09;99.28;98385.34;4945724;28;20025;-84
2022/04/06 15:07:53;;;;;;;;;;;;;;;4.05;98.67;98389.84;4944166;29;19919;-85
2022/04/06 15:10:19;;;;;;;;;;;;;;;4.06;98.04;98381.06;4945029;29;19923;-84
2022/04/06 15:12:44;;;;;;;;;;;;;;;4.04;97.42;98377.66;4945652;28;20030;-84
2022/04/06 15:15:10;;;;;;;;;;;;;;;4.02;96.92;98376.88;4945203;28;19922;-84
2022/04/06 15:17:35;;;;;;;;;;;;;;;4.01;96.33;98364.69;4944938;28;19919;-86
2022/04/06 15:20:01;;;;;;;;;;;;;;;3.97;95.78;98361.34;4943604;29;20539;-86
2022/04/06 15:22:26;;;;;;;;;;;;;;;3.97;95.29;98363.09;4942906;29;19918;-86
2022/04/06 15:24:53;;;;;;;;;;;;;;;3.96;95.09;98351.75;4945160;29;19965;-85
2022/04/06 15:27:18;;;;;;;;;;;;;;;3.94;94.70;98350.97;4945511;29;20377;-85
2022/04/06 15:29:43;;;;;;;;;;;;;;;3.92;94.30;98347.53;4945006;29;19925;-85
2022/04/06 15:32:08;;;;;;;;;;;;;;;3.93;94.29;98349.25;4944857;29;20321;-86
2022/04/06 15:37:24;;;;;;;;;;;;;;;3.89;93.65;98354.66;4944778;29;19933;-86
2022/04/06 15:39:56;;;;;;;;;;;;;;;3.87;93.44;98344.25;4946410;29;20013;-86
2022/04/06 15:42:25;;;;;;;;;;;;;;;3.88;93.15;98352.94;4943991;28;20026;-86
2022/04/06 15:44:51;;;;;;;;;;;;;;;3.91;93.10;98351.09;4944269;29;19935;-84
2022/04/06 15:47:16;;;;;;;;;;;;;;;3.90;92.90;98348.53;4945890;29;19937;-85
2022/04/06 15:49:42;;;;;;;;;;;;;;;3.88;92.68;98347.69;4951205;28;19923;-87
2022/04/06 15:52:07;;;;;;;;;;;;;;;3.87;92.39;98346.88;4941675;29;19978;-86
2022/04/06 15:54:39;;;;;;;;;;;;;;;3.85;92.20;98338.22;4943519;29;19930;-86
2022/04/06 15:57:08;;;;;;;;;;;;;;;3.85;91.93;98337.38;4945276;29;20005;-85
2022/04/06 15:59:34;;;;;;;;;;;;;;;3.85;91.79;98332.13;4942901;29;20049;-86
2022/04/06 16:01:59;;;;;;;;;;;;;;;3.82;91.36;98344.41;4942419;29;20013;-86
2022/04/06 16:04:24;;;;;;;;;;;;;;;3.80;91.23;98335.75;4945383;29;19926;-86
2022/04/06 16:06:49;;;;;;;;;;;;;;;3.81;91.02;98329.63;4942919;29;19919;-80
2022/04/06 16:09:15;;;;;;;;;;;;;;;3.77;90.90;98325.41;4942470;29;19926;-80
2022/04/06 16:11:40;;;;;;;;;;;;;;;3.75;90.88;98321.13;4944237;29;19919;-80
2022/04/06 16:14:05;;;;;;;;;;;;;;;3.76;90.75;98326.31;4944015;29;19927;-80
2022/04/06 16:16:31;;;;;;;;;;;;;;;3.76;90.49;98328.94;4943288;29;19918;-80
2022/04/06 16:18:58;;;;;;;;;;;;;;;3.76;90.49;98331.53;4944186;29;19930;-80
2022/04/06 16:21:24;;;;;;;;;;;;;;;3.75;90.28;98326.38;4943219;29;19950;-80
2022/04/06 16:23:51;;;;;;;;;;;;;;;3.75;90.13;98319.38;4942691;28;19922;-80
2022/04/06 16:26:16;;;;;;;;;;;;;;;3.70;90.16;98320.44;4943017;29;19929;-80
2022/04/06 16:28:42;;;;;;;;;;;;;;;3.75;90.10;98313.25;4942947;29;19918;-80
2022/04/06 16:31:08;;;;;;;;;;;;;;;3.73;89.93;98310.69;4943704;29;19928;-80
2022/04/06 16:33:33;;;;;;;;;;;;;;;3.69;89.95;98300.44;4944238;29;20790;-80
2022/04/06 16:35:58;;;;;;;;;;;;;;;3.66;89.89;98303.16;4944340;29;19984;-80
2022/04/06 16:38:23;;;;;;;;;;;;;;;3.67;89.91;98305.72;4941360;29;19929;-80
2022/04/06 16:40:48;;;;;;;;;;;;;;;3.69;89.93;98298.66;4943120;29;20417;-80
2022/04/06 16:43:14;;;;;;;;;;;;;;;3.67;89.93;98299.59;4944461;29;19931;-80
2022/04/06 16:45:39;;;;;;;;;;;;;;;3.68;89.87;98296.94;4942550;29;19925;-80
2022/04/06 16:48:05;;;;;;;;;;;;;;;3.66;89.75;98292.69;4939416;29;20287;-80
2022/04/06 16:53:17;;;;;;;;;;;;;;;3.64;89.72;98279.66;4936288;29;19942;-80
2022/04/06 16:55:42;;;;;;;;;;;;;;;3.62;89.63;98284.94;4947371;28;19923;-79
2022/04/06 16:58:07;;;;;;;;;;;;;;;3.68;89.54;98289.06;4947460;28;19923;-80
2022/04/06 17:00:32;;;;;;;;;;;;;;;3.59;89.57;98282.44;4944836;29;19930;-80
2022/04/06 17:02:58;;;;;;;;;;;;;;;3.64;89.54;98279.66;4954530;28;20468;-80
2022/04/06 17:05:24;;;;;;;;;;;;;;;3.61;89.50;98280.59;4947902;28;19926;-80
2022/04/06 17:07:50;;;;;;;;;;;;;;;6.20;93.82;98268.50;4946915;28;19926;-80
2022/04/06 17:10:18;;;;;;;;;;;;;;;4.71;91.98;98270.94;4947017;29;20425;-80
2022/04/06 17:12:44;;;;;;;;;;;;;;;4.17;91.92;98274.03;4947618;29;19926;-80
2022/04/06 17:15:09;;;;;;;;;;;;;;;4.00;91.92;98263.38;4946102;29;20255;-80
2022/04/06 17:17:35;;;;;;;;;;;;;;;3.92;91.62;98268.06;4945170;29;20053;-80
2022/04/06 17:20:01;;;;;;;;;;;;;;;3.89;91.36;98263.78;4948051;29;19927;-80
2022/04/06 17:22:26;;;;;;;;;;;;;;;3.86;91.17;98260.44;4945506;29;20437;-80
2022/04/06 17:24:52;;;;;;;;;;;;;;;3.82;90.96;98268.44;4946523;29;20013;-79
2022/04/06 17:27:17;;;;;;;;;;;;;;;3.79;90.90;98252.81;4942587;29;20000;-80
2022/04/06 17:29:42;;;;;;;;;;;;;;;3.75;90.79;98251.25;4948001;29;20006;-80
2022/04/06 17:32:08;;;;;;;;;;;;;;;3.79;90.71;98251.97;4946506;29;19927;-79
2022/04/06 17:34:34;;;;;;;;;;;;;;;3.77;90.78;98248.56;4947657;29;20009;-80
2022/04/06 17:36:59;;;;;;;;;;;;;;;3.73;90.82;98245.19;4946719;28;20595;-80
2022/04/06 17:39:25;;;;;;;;;;;;;;;3.72;90.73;98230.41;4947873;29;19922;-80
2022/04/06 17:41:51;;;;;;;;;;;;;;;3.76;90.66;98241.63;4946882;28;20341;-80
2022/04/06 17:44:18;;;;;;;;;;;;;;;3.75;90.70;98225.06;4946578;28;19974;-80
2022/04/06 17:46:43;;;;;;;;;;;;;;;3.71;90.69;98226.06;4946117;29;20301;-80
2022/04/06 17:49:09;;;;;;;;;;;;;;;3.70;90.64;98221.78;4946808;29;19933;-80
2022/04/06 17:51:38;;;;;;;;;;;;;;;3.68;90.76;98223.56;4946813;28;20013;-80
2022/04/06 17:54:08;;;;;;;;;;;;;;;3.76;90.86;98215.41;4943209;29;19931;-80
2022/04/06 17:56:33;;;;;;;;;;;;;;;3.72;90.62;98224.31;4946089;29;19970;-80
2022/04/06 17:58:59;;;;;;;;;;;;;;;3.70;90.65;98206.06;4944044;29;19985;-79
2022/04/06 18:01:24;;;;;;;;;;;;;;;3.72;90.67;98201.59;4945705;29;20362;-79
2022/04/06 18:03:49;;;;;;;;;;;;;;;3.73;90.63;98205.91;4946596;28;20301;-80
2022/04/06 18:06:14;;;;;;;;;;;;;;;3.70;90.47;98203.44;4943460;29;19959;-80
2022/04/06 18:08:40;;;;;;;;;;;;;;;3.70;90.54;98202.56;4945952;29;19922;-80
2022/04/06 18:13:49;;;;;;;;;;;;;;;3.72;90.51;98188.50;4946688;29;19933;-80
2022/04/06 18:16:16;;;;;;;;;;;;;;;3.68;90.30;98193.91;4946062;28;19927;-80
2022/04/06 18:18:46;;;;;;;;;;;;;;;3.69;90.36;98193.88;4945699;29;20057;-80
2022/04/06 18:21:12;;;;;;;;;;;;;;;3.71;90.40;98185.94;4946399;29;19978;-80
2022/04/06 18:23:37;;;;;;;;;;;;;;;3.66;90.29;98183.50;4944121;29;19922;-80
2022/04/06 18:26:05;;;;;;;;;;;;;;;3.68;90.17;98188.69;4946420;28;19930;-80
2022/04/06 18:28:31;;;;;;;;;;;;;;;3.66;90.13;98190.53;4944443;29;19933;-81
2022/04/06 18:30:58;;;;;;;;;;;;;;;3.64;90.08;98191.41;4946174;28;20356;-80
2022/04/06 18:33:25;;;;;;;;;;;;;;;3.61;89.95;98181.06;4946114;29;19966;-80
2022/04/06 18:35:51;;;;;;;;;;;;;;;3.61;89.99;98188.09;4946310;29;20019;-80
2022/04/06 18:38:16;;;;;;;;;;;;;;;3.63;89.94;98174.00;4944477;29;20353;-80
2022/04/06 18:40:41;;;;;;;;;;;;;;;3.63;90.03;98175.78;4945580;29;19929;-81
2022/04/06 18:43:07;;;;;;;;;;;;;;;3.64;90.02;98175.72;4945227;28;20010;-80
2022/04/06 18:45:32;;;;;;;;;;;;;;;3.62;89.91;98179.28;4946889;28;19933;-80
2022/04/06 18:47:57;;;;;;;;;;;;;;;3.63;89.90;98184.47;4944921;29;19927;-81
2022/04/06 18:50:23;;;;;;;;;;;;;;;3.62;89.80;98179.28;4944876;29;20362;-80
2022/04/06 18:52:48;;;;;;;;;;;;;;;3.63;89.75;98175.78;4945184;28;19954;-80
2022/04/06 18:55:14;;;;;;;;;;;;;;;3.64;89.64;98170.47;4943273;29;20260;-81
2022/04/06 18:57:40;;;;;;;;;;;;;;;3.62;89.51;98176.66;4943010;29;19926;-80
2022/04/06 19:00:09;;;;;;;;;;;;;;;3.65;89.44;98171.31;4945850;29;19956;-81
2022/04/06 19:02:34;;;;;;;;;;;;;;;3.65;89.48;98181.78;4945014;29;19923;-81
2022/04/06 19:04:59;;;;;;;;;;;;;;;3.59;89.42;98171.56;4945825;29;19970;-80
2022/04/06 19:07:24;;;;;;;;;;;;;;;3.60;89.31;98184.59;4943985;29;19930;-80
2022/04/06 19:09:50;;;;;;;;;;;;;;;3.63;89.36;98183.63;4945602;29;19922;-80
2022/04/06 19:12:15;;;;;;;;;;;;;;;3.62;89.24;98182.78;4943776;29;19993;-80
2022/04/06 19:14:43;;;;;;;;;;;;;;;3.63;89.23;98184.47;4944079;29;19923;-80
2022/04/06 19:17:09;;;;;;;;;;;;;;;3.63;89.27;98187.09;4945054;28;19959;-80
2022/04/06 19:19:34;;;;;;;;;;;;;;;3.63;89.14;98189.72;4942879;29;20028;-80
2022/04/06 19:21:59;;;;;;;;;;;;;;;3.65;89.08;98194.88;4943354;29;19926;-80
2022/04/06 19:24:25;;;;;;;;;;;;;;;3.62;89.10;98197.63;4944721;29;20267;-80
2022/04/06 19:26:50;;;;;;;;;;;;;;;3.66;89.26;98193.13;4943003;28;20043;-79
2022/04/06 19:29:15;;;;;;;;;;;;;;;3.67;89.23;98207.91;4943211;29;19923;-80
2022/04/06 19:31:41;;;;;;;;;;;;;;;3.66;89.26;98206.25;4944910;28;20076;-79
2022/04/06 19:34:08;;;;;;;;;;;;;;;3.64;89.21;98207.13;4942302;29;19993;-81
2022/04/06 19:36:33;;;;;;;;;;;;;;;3.61;89.10;98212.50;4940508;29;19929;-79
2022/04/06 19:38:58;;;;;;;;;;;;;;;3.67;89.17;98214.03;4940960;29;20378;-80
2022/04/06 19:41:24;;;;;;;;;;;;;;;3.68;89.32;98217.50;4944500;28;19923;-79
2022/04/06 19:43:49;;;;;;;;;;;;;;;3.63;89.09;98215.91;4943984;28;19926;-80
2022/04/06 19:46:15;;;;;;;;;;;;;;;3.66;89.00;98225.41;4944476;29;20378;-79
2022/04/06 19:48:40;;;;;;;;;;;;;;;3.64;88.83;98228.09;4945090;29;19946;-79
2022/04/06 19:51:05;;;;;;;;;;;;;;;3.61;88.77;98225.59;4944875;28;20061;-80